createdAt,value
2019-04-04T00:00:58.955Z,101094.69
2019-04-04T00:03:30.405Z,101096.06
2019-04-04T00:06:01.985Z,101088.26
2019-04-04T00:08:33.733Z,101091.64
2019-04-04T00:11:06.080Z,101093.91
2019-04-04T00:13:38.228Z,101088.52
2019-04-04T00:16:09.509Z,101093.66
2019-04-04T00:18:41.226Z,101091.02
2019-04-04T00:21:12.776Z,101091.50
2019-04-04T00:23:44.483Z,101091.16
2019-04-04T00:26:15.882Z,101090.37
2019-04-04T00:28:47.584Z,101096.55
2019-04-04T00:31:19.768Z,101092.48
2019-04-04T00:33:51.440Z,101091.94
2019-04-04T00:36:22.845Z,101093.71
2019-04-04T00:38:54.864Z,101089.58
2019-04-04T00:41:26.537Z,101093.91
2019-04-04T00:43:58.246Z,101091.56
2019-04-04T00:46:30.884Z,101093.47
2019-04-04T00:49:04.922Z,101091.11
2019-04-04T00:51:38.699Z,101087.58
2019-04-04T00:54:09.752Z,101081.20
2019-04-04T00:56:41.133Z,101083.74
2019-04-04T00:59:12.840Z,101089.97
2019-04-04T01:01:44.597Z,101084.58
2019-04-04T01:04:16.338Z,101088.34
2019-04-04T01:06:47.909Z,101085.10
2019-04-04T01:09:19.763Z,101090.30
2019-04-04T01:11:51.867Z,101087.13
2019-04-04T01:14:23.490Z,101089.52
2019-04-04T01:16:54.949Z,101087.44
2019-04-04T01:19:26.521Z,101077.13
2019-04-04T01:21:58.200Z,101080.66
2019-04-04T01:24:29.949Z,101077.76
2019-04-04T01:27:01.396Z,101077.27
2019-04-04T01:29:33.247Z,101076.25
2019-04-04T01:32:05.138Z,101075.27
2019-04-04T01:34:36.920Z,101074.63
2019-04-04T01:37:08.595Z,101075.34
2019-04-04T01:39:40.036Z,101078.88
2019-04-04T01:42:11.893Z,101069.55
2019-04-04T01:44:44.381Z,101072.32
2019-04-04T01:47:17.057Z,101063.93
2019-04-04T01:49:49.972Z,101066.19
2019-04-04T01:52:22.934Z,101065.61
2019-04-04T01:54:54.883Z,101060.95
2019-04-04T01:57:26.778Z,101061.44
2019-04-04T01:59:58.132Z,101060.02
2019-04-04T02:02:30.522Z,101061.02
2019-04-04T02:05:02.414Z,101066.70
2019-04-04T02:07:34.072Z,101067.96
2019-04-04T02:10:06.568Z,101065.61
2019-04-04T02:12:39.260Z,101068.94
2019-04-04T02:15:13.777Z,101067.32
2019-04-04T02:17:44.336Z,101069.16
2019-04-04T02:20:16.779Z,101073.67
2019-04-04T02:22:48.466Z,101077.94
2019-04-04T02:25:19.865Z,101074.45
2019-04-04T02:27:51.392Z,101073.29
2019-04-04T02:30:22.879Z,101068.13
2019-04-04T02:32:59.428Z,101074.86
2019-04-04T02:35:28.681Z,101078.28
2019-04-04T02:38:02.863Z,101074.60
2019-04-04T02:40:34.728Z,101080.94
2019-04-04T02:43:06.436Z,101079.98
2019-04-04T02:45:39.107Z,101078.57
2019-04-04T02:48:10.803Z,101083.94
2019-04-04T02:50:42.392Z,101078.73
2019-04-04T02:53:19.359Z,101084.48
2019-04-04T02:55:47.117Z,101089.42
2019-04-04T02:58:18.679Z,101088.00
2019-04-04T03:00:50.231Z,101089.55
2019-04-04T03:03:21.894Z,101090.00
2019-04-04T03:05:53.514Z,101083.33
2019-04-04T03:08:25.184Z,101088.23
2019-04-04T03:10:56.774Z,101091.44
2019-04-04T03:13:31.168Z,101089.27
2019-04-04T03:16:01.571Z,101090.69
2019-04-04T03:18:34.829Z,101095.99
2019-04-04T03:21:06.454Z,101098.64
2019-04-04T03:23:37.969Z,101097.09
2019-04-04T03:26:09.834Z,101100.73
2019-04-04T03:28:41.591Z,101101.67
2019-04-04T03:31:13.246Z,101102.48
2019-04-04T03:33:44.622Z,101105.98
2019-04-04T03:36:16.217Z,101105.98
2019-04-04T03:38:48.884Z,101112.75
2019-04-04T03:41:20.739Z,101109.13
2019-04-04T03:43:52.251Z,101107.59
2019-04-04T03:46:24.197Z,101108.92
2019-04-04T03:48:55.552Z,101107.94
2019-04-04T03:51:27.301Z,101111.80
2019-04-04T03:54:00.219Z,101099.88
2019-04-04T03:56:38.781Z,101100.02
2019-04-04T03:59:05.249Z,101108.70
2019-04-04T04:01:36.969Z,101104.61
2019-04-04T04:04:08.450Z,101104.22
2019-04-04T04:06:41.932Z,101104.22
2019-04-04T04:09:14.522Z,101113.78
2019-04-04T04:11:46.486Z,101108.36
2019-04-04T04:14:21.648Z,101112.63
2019-04-04T04:16:51.236Z,101108.14
2019-04-04T04:19:24.525Z,101112.50
2019-04-04T04:21:55.970Z,101108.28
2019-04-04T04:24:29.816Z,101111.42
2019-04-04T04:27:01.100Z,101106.99
2019-04-04T04:29:34.015Z,101102.73
2019-04-04T04:32:05.469Z,101096.02
2019-04-04T04:34:37.148Z,101102.10
2019-04-04T04:37:08.468Z,101098.77
2019-04-04T04:39:41.440Z,101093.27
2019-04-04T04:42:12.383Z,101098.68
2019-04-04T04:44:43.842Z,101103.31
2019-04-04T04:47:15.367Z,101099.58
2019-04-04T04:49:47.146Z,101104.30
2019-04-04T04:52:18.528Z,101104.30
2019-04-04T04:54:50.086Z,101109.21
2019-04-04T04:57:29.503Z,101106.20
2019-04-04T04:59:55.582Z,101101.13
2019-04-04T05:02:26.958Z,101106.81
2019-04-04T05:04:59.424Z,101102.06
2019-04-04T05:07:31.314Z,101109.97
2019-04-04T05:10:03.268Z,101108.13
2019-04-04T05:12:34.810Z,101109.34
2019-04-04T05:15:07.342Z,101117.61
2019-04-04T05:17:40.029Z,101116.39
2019-04-04T05:20:12.287Z,101115.66
2019-04-04T05:22:43.711Z,101115.52
2019-04-04T05:25:15.848Z,101114.28
2019-04-04T05:27:47.762Z,101114.42
2019-04-04T05:30:20.461Z,101114.68
2019-04-04T05:32:56.268Z,101106.37
2019-04-04T05:35:25.792Z,101113.80
2019-04-04T05:37:57.440Z,101112.31
2019-04-04T05:40:30.683Z,101114.77
2019-04-04T05:43:04.189Z,101111.79
2019-04-04T05:45:35.452Z,101102.69
2019-04-04T05:48:07.108Z,101110.75
2019-04-04T05:50:38.453Z,101117.07
2019-04-04T05:53:10.212Z,101116.70
2019-04-04T05:55:42.486Z,101119.78
2019-04-04T05:58:14.346Z,101124.15
2019-04-04T06:00:46.934Z,101125.40
2019-04-04T06:03:18.605Z,101124.02
2019-04-04T06:05:50.358Z,101117.64
2019-04-04T06:08:22.112Z,101126.75
2019-04-04T06:10:54.043Z,101121.94
2019-04-04T06:13:27.014Z,101122.27
2019-04-04T06:15:58.747Z,101130.25
2019-04-04T06:18:30.239Z,101127.33
2019-04-04T06:21:01.836Z,101130.22
2019-04-04T06:23:33.653Z,101135.84
2019-04-04T06:26:07.416Z,101127.45
2019-04-04T06:28:38.813Z,101130.91
2019-04-04T06:31:10.607Z,101132.58
2019-04-04T06:33:42.360Z,101130.55
2019-04-04T06:36:17.612Z,101130.98
2019-04-04T06:38:49.772Z,101127.27
2019-04-04T06:41:21.383Z,101125.94
2019-04-04T06:43:54.323Z,101130.69
2019-04-04T06:46:26.048Z,101134.44
2019-04-04T06:48:57.957Z,101136.06
2019-04-04T06:51:29.553Z,101133.01
2019-04-04T06:54:01.441Z,101137.36
2019-04-04T06:56:33.019Z,101137.98
2019-04-04T06:59:04.927Z,101127.69
2019-04-04T07:01:36.602Z,101132.02
2019-04-04T07:04:08.236Z,101129.49
2019-04-04T07:06:41.761Z,101126.25
2019-04-04T07:09:13.591Z,101132.22
2019-04-04T07:11:44.973Z,101128.95
2019-04-04T07:14:17.493Z,101130.27
2019-04-04T07:16:49.460Z,101136.20
2019-04-04T07:19:21.136Z,101133.53
2019-04-04T07:21:52.795Z,101128.66
2019-04-04T07:24:24.303Z,101124.53
2019-04-04T07:26:55.863Z,101122.82
2019-04-04T07:29:27.782Z,101126.69
2019-04-04T07:31:59.542Z,101118.11
2019-04-04T07:34:30.979Z,101120.30
2019-04-04T07:37:03.130Z,101119.56
2019-04-04T07:39:34.812Z,101118.48
2019-04-04T07:42:06.602Z,101117.89
2019-04-04T07:44:38.512Z,101115.59
2019-04-04T07:47:10.453Z,101115.41
2019-04-04T07:49:41.814Z,101109.05
2019-04-04T07:52:13.934Z,101103.90
2019-04-04T07:54:45.529Z,101103.87
2019-04-04T07:57:19.712Z,101102.17
2019-04-04T07:59:50.339Z,101109.98
2019-04-04T08:02:22.261Z,101110.25
2019-04-04T08:04:53.900Z,101111.72
2019-04-04T08:07:25.425Z,101120.31
2019-04-04T08:09:56.927Z,101108.63
2019-04-04T08:12:28.787Z,101087.90
2019-04-04T08:15:00.539Z,101087.90
2019-04-04T08:17:32.300Z,101107.86
2019-04-04T08:20:04.674Z,101116.35
2019-04-04T08:22:39.460Z,101095.89
2019-04-04T08:25:09.357Z,101115.89
2019-04-04T08:27:40.934Z,101104.00
2019-04-04T08:30:12.819Z,101102.24
2019-04-04T08:32:44.237Z,101094.05
2019-04-04T08:35:15.509Z,101067.92
2019-04-04T08:37:47.277Z,101098.13
2019-04-04T08:40:18.599Z,101124.77
2019-04-04T08:42:50.163Z,101099.73
2019-04-04T08:45:21.825Z,101094.78
2019-04-04T08:47:53.678Z,101091.95
2019-04-04T08:50:25.358Z,101082.25
2019-04-04T08:52:56.856Z,101091.72
2019-04-04T08:55:28.225Z,101083.95
2019-04-04T08:58:00.182Z,101083.81
2019-04-04T09:00:31.603Z,101082.98
2019-04-04T09:03:03.344Z,101075.45
2019-04-04T09:05:34.763Z,101079.91
2019-04-04T09:08:06.414Z,101072.52
2019-04-04T09:10:37.774Z,101076.00
2019-04-04T09:13:09.912Z,101076.35
2019-04-04T09:15:41.463Z,101079.63
2019-04-04T09:18:13.341Z,101079.39
2019-04-04T09:20:44.677Z,101077.06
2019-04-04T09:23:16.530Z,101079.16
2019-04-04T09:25:47.991Z,101073.70
2019-04-04T09:28:19.750Z,101079.11
2019-04-04T09:30:51.615Z,101079.97
2019-04-04T09:33:23.175Z,101075.13
2019-04-04T09:35:54.919Z,101062.69
2019-04-04T09:38:29.055Z,101067.57
2019-04-04T09:40:59.679Z,101078.97
2019-04-04T09:43:31.278Z,101072.06
2019-04-04T09:46:02.748Z,101076.98
2019-04-04T09:48:34.427Z,101058.00
2019-04-04T09:51:06.203Z,101054.78
2019-04-04T09:53:52.386Z,101052.28
2019-04-04T09:56:13.270Z,101056.14
2019-04-04T09:58:44.797Z,101057.33
2019-04-04T10:01:16.386Z,101055.14
2019-04-04T10:03:47.835Z,101055.45
2019-04-04T10:06:19.636Z,101053.75
2019-04-04T10:08:51.041Z,101036.80
2019-04-04T10:11:22.699Z,101036.80
2019-04-04T10:13:54.153Z,101040.98
2019-04-04T10:16:25.876Z,101045.02
2019-04-04T10:18:57.455Z,101042.86
2019-04-04T10:21:29.159Z,101038.97
2019-04-04T10:24:01.522Z,101040.50
2019-04-04T10:26:33.061Z,101037.95
2019-04-04T10:29:04.646Z,101032.34
2019-04-04T10:31:36.488Z,101030.78
2019-04-04T10:34:08.183Z,101027.32
2019-04-04T10:36:39.964Z,101029.01
2019-04-04T10:39:12.986Z,101024.48
2019-04-04T10:41:44.619Z,101024.85
2019-04-04T10:44:16.157Z,101026.55
2019-04-04T10:46:47.836Z,101027.55
2019-04-04T10:49:19.301Z,101014.25
2019-04-04T10:51:51.126Z,101011.23
2019-04-04T10:54:22.791Z,101005.86
2019-04-04T10:56:54.278Z,101000.64
2019-04-04T10:59:25.995Z,101003.99
2019-04-04T11:02:00.735Z,100998.63
2019-04-04T11:04:31.158Z,100997.44
2019-04-04T11:07:02.907Z,100996.09
2019-04-04T11:09:41.733Z,101006.84
2019-04-04T11:12:07.508Z,100994.75
2019-04-04T11:14:39.002Z,100995.76
2019-04-04T11:17:10.665Z,100990.39
2019-04-04T11:19:43.519Z,100985.17
2019-04-04T11:22:15.262Z,100982.31
2019-04-04T11:24:46.788Z,100981.45
2019-04-04T11:27:18.644Z,100981.97
2019-04-04T11:29:49.862Z,100973.90
2019-04-04T11:32:21.899Z,100975.73
2019-04-04T11:34:53.922Z,100972.72
2019-04-04T11:37:25.423Z,100968.52
2019-04-04T11:39:57.711Z,100961.63
2019-04-04T11:42:29.076Z,100961.47
2019-04-04T11:45:00.859Z,100969.19
2019-04-04T11:47:33.483Z,100963.48
2019-04-04T11:50:07.618Z,100969.35
2019-04-04T11:52:39.032Z,100962.63
2019-04-04T11:55:10.683Z,100959.62
2019-04-04T11:57:42.257Z,100957.74
2019-04-04T12:00:15.365Z,100957.09
2019-04-04T12:02:46.915Z,100961.09
2019-04-04T12:05:18.800Z,100957.72
2019-04-04T12:07:50.355Z,100958.07
2019-04-04T12:10:21.758Z,100956.23
2019-04-04T12:12:53.318Z,100944.15
2019-04-04T12:15:24.983Z,100942.97
2019-04-04T12:17:56.750Z,100947.85
2019-04-04T12:20:28.068Z,100943.64
2019-04-04T12:22:59.707Z,100941.43
2019-04-04T12:25:31.234Z,100946.80
2019-04-04T12:28:03.168Z,100939.40
2019-04-04T12:30:34.696Z,100938.72
2019-04-04T12:33:06.487Z,100930.30
2019-04-04T12:35:38.326Z,100925.44
2019-04-04T12:38:10.130Z,100928.75
2019-04-04T12:40:41.945Z,100934.83
2019-04-04T12:43:13.791Z,100929.14
2019-04-04T12:45:45.454Z,100936.19
2019-04-04T12:48:16.892Z,100924.39
2019-04-04T12:50:48.625Z,100930.97
2019-04-04T12:53:20.614Z,100930.98
2019-04-04T12:55:54.158Z,100929.48
2019-04-04T12:58:25.187Z,100929.79
2019-04-04T13:00:56.609Z,100926.59
2019-04-04T13:03:28.706Z,100928.09
2019-04-04T13:06:00.440Z,100923.34
2019-04-04T13:08:32.129Z,100919.18
2019-04-04T13:11:03.543Z,100919.70
2019-04-04T13:13:37.993Z,100923.75
2019-04-04T13:16:09.335Z,100919.89
2019-04-04T13:18:40.893Z,100915.50
2019-04-04T13:21:12.383Z,100920.38
2019-04-04T13:23:44.376Z,100912.48
2019-04-04T13:26:15.886Z,100915.34
2019-04-04T13:28:47.503Z,100911.11
2019-04-04T13:31:18.734Z,100904.84
2019-04-04T13:33:51.222Z,100914.74
2019-04-04T13:36:22.546Z,100904.29
2019-04-04T13:38:55.166Z,100909.84
2019-04-04T13:41:27.496Z,100905.06
2019-04-04T13:43:59.046Z,100900.75
2019-04-04T13:46:30.719Z,100904.66
2019-04-04T13:49:02.362Z,100904.31
2019-04-04T13:51:33.736Z,100902.79
2019-04-04T13:54:05.616Z,100904.14
2019-04-04T13:56:37.049Z,100902.16
2019-04-04T13:59:08.592Z,100903.00
2019-04-04T14:01:42.789Z,100896.91
2019-04-04T14:04:13.309Z,100894.91
2019-04-04T14:06:45.105Z,100898.30
2019-04-04T14:09:16.889Z,100896.84
2019-04-04T14:11:48.383Z,100885.13
2019-04-04T14:14:20.034Z,100890.02
2019-04-04T14:16:51.704Z,100886.00
2019-04-04T14:19:22.891Z,100884.70
2019-04-04T14:21:54.496Z,100890.80
2019-04-04T14:24:26.144Z,100892.84
2019-04-04T14:26:57.553Z,100891.98
2019-04-04T14:29:28.980Z,100889.33
2019-04-04T14:32:00.800Z,100891.48
2019-04-04T14:34:32.479Z,100896.20
2019-04-04T14:37:04.440Z,100889.14
2019-04-04T14:39:35.839Z,100884.60
2019-04-04T14:42:07.453Z,100892.16
2019-04-04T14:44:39.292Z,100888.96
2019-04-04T14:47:10.946Z,100895.20
2019-04-04T14:49:45.079Z,100888.13
2019-04-04T14:52:19.528Z,100889.81
2019-04-04T14:54:49.356Z,100884.78
2019-04-04T14:57:20.946Z,100881.45
2019-04-04T14:59:52.601Z,100878.59
2019-04-04T15:02:24.166Z,100873.89
2019-04-04T15:04:56.061Z,100877.24
2019-04-04T15:07:27.463Z,100876.06
2019-04-04T15:09:59.124Z,100873.88
2019-04-04T15:12:30.787Z,100875.56
2019-04-04T15:15:02.612Z,100873.53
2019-04-04T15:17:34.081Z,100872.54
2019-04-04T15:20:08.876Z,100875.04
2019-04-04T15:22:40.597Z,100872.81
2019-04-04T15:25:12.233Z,100878.00
2019-04-04T15:27:43.839Z,100870.43
2019-04-04T15:30:15.465Z,100873.27
2019-04-04T15:32:47.290Z,100872.41
2019-04-04T15:35:18.840Z,100870.23
2019-04-04T15:37:50.261Z,100870.36
2019-04-04T15:40:21.743Z,100873.88
2019-04-04T15:42:53.087Z,100867.63
2019-04-04T15:45:24.785Z,100872.80
2019-04-04T15:47:56.096Z,100878.42
2019-04-04T15:50:27.949Z,100877.02
2019-04-04T15:52:59.159Z,100875.83
2019-04-04T15:55:30.758Z,100876.43
2019-04-04T15:58:01.993Z,100875.57
2019-04-04T16:00:33.765Z,100883.23
2019-04-04T16:03:05.260Z,100884.69
2019-04-04T16:05:38.808Z,100885.44
2019-04-04T16:08:10.476Z,100884.83
2019-04-04T16:10:42.015Z,100881.25
2019-04-04T16:13:13.468Z,100884.66
2019-04-04T16:15:45.234Z,100882.16
2019-04-04T16:18:16.736Z,100885.23
2019-04-04T16:20:48.235Z,100885.47
2019-04-04T16:23:19.518Z,100883.78
2019-04-04T16:25:51.176Z,100895.98
2019-04-04T16:28:22.625Z,100891.61
2019-04-04T16:30:54.072Z,100895.91
2019-04-04T16:33:26.564Z,100892.62
2019-04-04T16:35:58.245Z,100891.94
2019-04-04T16:38:30.017Z,100892.34
2019-04-04T16:41:01.474Z,100901.16
2019-04-04T16:43:33.334Z,100899.31
2019-04-04T16:46:04.874Z,100902.89
2019-04-04T16:48:36.439Z,100903.78
2019-04-04T16:51:07.643Z,100904.87
2019-04-04T16:53:39.225Z,100894.83
2019-04-04T16:56:10.886Z,100913.27
2019-04-04T16:58:42.572Z,100912.39
2019-04-04T17:01:14.158Z,100917.75
2019-04-04T17:03:45.879Z,100915.30
2019-04-04T17:06:17.107Z,100913.31
2019-04-04T17:08:48.895Z,100916.91
2019-04-04T17:11:20.247Z,100906.95
2019-04-04T17:13:51.965Z,100920.00
2019-04-04T17:16:23.856Z,100928.99
2019-04-04T17:18:56.632Z,100929.01
2019-04-04T17:21:27.956Z,100927.56
2019-04-04T17:23:59.730Z,100934.19
2019-04-04T17:26:31.126Z,100932.30
2019-04-04T17:29:02.864Z,100937.08
2019-04-04T17:31:34.480Z,100935.31
2019-04-04T17:34:05.768Z,100932.48
2019-04-04T17:36:38.029Z,100937.06
2019-04-04T17:39:10.000Z,100934.47
2019-04-04T17:41:41.788Z,100931.77
2019-04-04T17:44:14.686Z,100932.81
2019-04-04T17:46:48.311Z,100931.41
2019-04-04T17:49:20.228Z,100934.98
2019-04-04T17:51:51.915Z,100940.16
2019-04-04T17:54:23.597Z,100935.45
2019-04-04T17:56:55.267Z,100936.45
2019-04-04T17:59:26.877Z,100935.89
2019-04-04T18:01:58.541Z,100942.33
2019-04-04T18:04:29.881Z,100940.42
2019-04-04T18:07:01.504Z,100941.69
2019-04-04T18:09:33.172Z,100941.99
2019-04-04T18:12:05.030Z,100944.11
2019-04-04T18:14:36.708Z,100892.95
2019-04-04T18:17:08.570Z,100936.09
2019-04-04T18:19:40.144Z,100949.03
2019-04-04T18:22:11.778Z,100945.55
2019-04-04T18:24:43.438Z,100941.52
2019-04-04T18:27:14.958Z,100950.72
2019-04-04T18:29:46.805Z,100955.94
2019-04-04T18:32:18.394Z,100960.70
2019-04-04T18:34:49.725Z,100960.51
2019-04-04T18:37:21.928Z,100968.01
2019-04-04T18:39:53.359Z,100965.21
2019-04-04T18:42:25.376Z,100968.14
2019-04-04T18:44:57.263Z,100969.37
2019-04-04T18:47:28.920Z,100971.52
2019-04-04T18:50:00.726Z,100969.87
2019-04-04T18:52:32.579Z,100974.98
2019-04-04T18:55:05.470Z,100974.78
2019-04-04T18:57:37.164Z,100975.21
2019-04-04T19:00:11.825Z,100974.91
2019-04-04T19:02:43.561Z,100973.77
2019-04-04T19:05:15.323Z,100963.75
2019-04-04T19:07:47.130Z,100969.16
2019-04-04T19:10:18.560Z,100974.89
2019-04-04T19:12:50.017Z,100970.28
2019-04-04T19:15:21.689Z,100973.47
2019-04-04T19:17:53.428Z,100966.27
2019-04-04T19:20:25.198Z,100970.05
2019-04-04T19:22:56.805Z,100972.97
2019-04-04T19:25:28.269Z,100968.89
2019-04-04T19:28:00.041Z,100969.52
2019-04-04T19:30:31.645Z,100967.78
2019-04-04T19:33:03.181Z,100978.50
2019-04-04T19:35:34.946Z,100984.83
2019-04-04T19:38:06.920Z,100987.66
2019-04-04T19:40:38.801Z,100985.31
2019-04-04T19:43:17.926Z,100994.61
2019-04-04T19:45:43.869Z,100993.77
2019-04-04T19:48:15.542Z,100985.69
2019-04-04T19:50:47.017Z,100984.97
2019-04-04T19:53:18.549Z,100985.83
2019-04-04T19:55:50.056Z,100991.77
2019-04-04T19:58:21.600Z,101001.15
2019-04-04T20:00:52.994Z,100992.57
2019-04-04T20:03:24.639Z,100997.90
2019-04-04T20:05:56.420Z,100995.50
2019-04-04T20:08:28.563Z,100987.97
2019-04-04T20:11:02.316Z,100991.81
2019-04-04T20:13:34.524Z,100987.81
2019-04-04T20:16:05.943Z,100989.08
2019-04-04T20:18:37.512Z,100989.52
2019-04-04T20:21:09.404Z,100988.17
2019-04-04T20:23:41.089Z,100985.75
2019-04-04T20:26:12.694Z,100983.48
2019-04-04T20:28:44.681Z,100988.86
2019-04-04T20:31:16.353Z,100989.59
2019-04-04T20:34:00.660Z,100991.04
2019-04-04T20:36:21.587Z,100992.75
2019-04-04T20:38:53.248Z,100995.52
2019-04-04T20:41:24.939Z,100992.97
2019-04-04T20:43:56.554Z,101000.00
2019-04-04T20:46:28.642Z,100991.64
2019-04-04T20:49:00.070Z,100994.89
2019-04-04T20:51:32.132Z,101000.48
2019-04-04T20:54:04.092Z,100999.62
2019-04-04T20:56:35.917Z,100999.16
2019-04-04T20:59:07.569Z,100998.78
2019-04-04T21:01:38.839Z,100999.39
2019-04-04T21:04:10.620Z,101000.27
2019-04-04T21:06:42.177Z,100996.63
2019-04-04T21:09:13.658Z,100999.73
2019-04-04T21:11:44.990Z,101000.31
2019-04-04T21:14:16.887Z,100997.64
2019-04-04T21:16:48.278Z,100998.92
2019-04-04T21:19:20.032Z,101001.47
2019-04-04T21:21:51.601Z,100999.02
2019-04-04T21:24:23.651Z,100998.39
2019-04-04T21:26:55.037Z,101001.55
2019-04-04T21:29:26.682Z,100996.42
2019-04-04T21:31:57.980Z,101001.25
2019-04-04T21:34:29.683Z,101003.00
2019-04-04T21:37:01.016Z,100999.42
2019-04-04T21:39:33.309Z,101001.59
2019-04-04T21:42:04.353Z,101009.91
2019-04-04T21:44:36.487Z,101005.61
2019-04-04T21:47:08.137Z,101011.43
2019-04-04T21:49:39.754Z,101005.45
2019-04-04T21:52:11.454Z,101000.28
2019-04-04T21:54:43.513Z,101006.75
2019-04-04T21:57:15.175Z,101002.34
2019-04-04T21:59:46.628Z,101004.72
2019-04-04T22:02:18.287Z,101000.47
2019-04-04T22:04:49.721Z,100991.58
2019-04-04T22:07:21.396Z,101008.66
2019-04-04T22:09:56.079Z,101005.97
2019-04-04T22:12:27.692Z,101001.92
2019-04-04T22:14:59.422Z,100999.70
2019-04-04T22:17:31.286Z,101006.49
2019-04-04T22:20:02.883Z,101001.32
2019-04-04T22:22:34.824Z,101003.65
2019-04-04T22:25:07.232Z,101005.81
2019-04-04T22:27:38.829Z,101007.73
2019-04-04T22:30:10.078Z,101007.48
2019-04-04T22:32:41.854Z,101010.19
2019-04-04T22:35:13.294Z,101005.83
2019-04-04T22:37:44.944Z,101006.37
2019-04-04T22:40:16.383Z,100998.48
2019-04-04T22:42:48.142Z,101004.70
2019-04-04T22:45:19.609Z,101009.16
2019-04-04T22:47:51.360Z,101004.75
2019-04-04T22:50:22.711Z,101013.01
2019-04-04T22:52:54.825Z,101012.55
2019-04-04T22:55:26.814Z,101008.38
2019-04-04T22:57:58.387Z,101008.88
2019-04-04T23:00:29.708Z,101006.08
2019-04-04T23:03:02.493Z,101007.98
2019-04-04T23:05:33.859Z,101007.61
2019-04-04T23:08:07.473Z,101008.45
2019-04-04T23:10:38.714Z,101010.78
2019-04-04T23:13:10.262Z,101006.91
2019-04-04T23:15:41.811Z,101005.50
2019-04-04T23:18:13.501Z,101001.12
2019-04-04T23:20:44.834Z,100997.60
2019-04-04T23:23:16.679Z,100998.57
2019-04-04T23:25:48.227Z,101002.90
2019-04-04T23:28:19.986Z,101007.05
2019-04-04T23:30:51.642Z,101002.99
2019-04-04T23:33:23.099Z,101002.99
2019-04-04T23:35:54.782Z,101002.48
2019-04-04T23:38:26.507Z,101006.44
2019-04-04T23:40:58.051Z,101006.17
2019-04-04T23:43:29.614Z,101004.05
2019-04-04T23:46:01.002Z,101008.23
2019-04-04T23:48:32.502Z,101007.32
2019-04-04T23:51:04.494Z,101009.67
2019-04-04T23:53:35.989Z,100999.77
2019-04-04T23:56:07.892Z,101001.57
2019-04-04T23:58:39.137Z,101000.03
